createdAt,value
2022-08-18T00:01:16.647Z,22.88
2022-08-18T00:03:56.254Z,22.93
2022-08-18T00:06:30.061Z,22.81
2022-08-18T00:08:59.977Z,22.80
2022-08-18T00:11:41.622Z,22.96
2022-08-18T00:14:13.828Z,23.33
2022-08-18T00:16:53.770Z,23.61
2022-08-18T00:19:43.459Z,23.70
2022-08-18T00:22:15.830Z,23.81
2022-08-18T00:24:48.121Z,23.80
2022-08-18T00:27:21.982Z,23.71
2022-08-18T00:29:53.210Z,23.73
2022-08-18T00:32:25.580Z,23.60
2022-08-18T00:34:54.371Z,23.43
2022-08-18T00:37:25.199Z,23.39
2022-08-18T00:39:54.369Z,23.30
2022-08-18T00:42:28.863Z,23.17
2022-08-18T00:45:02.744Z,23.21
2022-08-18T00:47:41.601Z,23.60
2022-08-18T00:50:15.676Z,23.98
2022-08-18T00:52:51.205Z,24.23
2022-08-18T00:55:20.381Z,24.47
2022-08-18T00:57:57.393Z,24.58
2022-08-18T01:00:25.834Z,24.65
2022-08-18T01:02:58.332Z,24.70
2022-08-18T01:05:34.070Z,24.72
2022-08-18T01:08:04.689Z,24.71
2022-08-18T01:10:35.458Z,24.71
2022-08-18T01:13:03.699Z,24.77
2022-08-18T01:15:33.969Z,24.68
2022-08-18T01:18:21.714Z,24.74
2022-08-18T01:21:16.235Z,24.52
2022-08-18T01:23:47.166Z,24.33
2022-08-18T01:26:15.517Z,23.89
2022-08-18T01:28:46.653Z,23.75
2022-08-18T01:31:32.983Z,23.57
2022-08-18T01:34:01.313Z,23.48
2022-08-18T01:36:30.151Z,23.31
2022-08-18T01:38:59.776Z,23.06
2022-08-18T01:41:30.831Z,23.16
2022-08-18T01:44:00.546Z,23.23
2022-08-18T01:46:30.318Z,23.23
2022-08-18T01:49:01.489Z,23.40
2022-08-18T01:51:39.383Z,23.64
2022-08-18T01:54:13.493Z,23.59
2022-08-18T01:56:43.393Z,23.46
2022-08-18T01:59:14.791Z,23.28
2022-08-18T02:01:48.450Z,23.17
2022-08-18T02:04:36.553Z,23.04
2022-08-18T02:07:09.288Z,22.86
2022-08-18T02:09:41.276Z,22.91
2022-08-18T02:12:10.266Z,23.30
2022-08-18T02:14:39.100Z,23.60
2022-08-18T02:17:09.472Z,23.66
2022-08-18T02:19:40.932Z,23.60
2022-08-18T02:22:11.921Z,23.35
2022-08-18T02:24:44.065Z,23.44
2022-08-18T02:27:13.503Z,23.65
2022-08-18T02:29:42.061Z,23.79
2022-08-18T02:32:10.504Z,23.88
2022-08-18T02:34:38.812Z,23.91
2022-08-18T02:37:06.985Z,23.94
2022-08-18T02:39:38.036Z,23.93
2022-08-18T02:42:09.213Z,23.88
2022-08-18T02:44:37.483Z,23.92
2022-08-18T02:47:06.544Z,24.02
2022-08-18T02:49:36.902Z,24.02
2022-08-18T02:52:06.737Z,24.03
2022-08-18T02:54:35.276Z,24.09
2022-08-18T02:57:10.850Z,24.12
2022-08-18T02:59:40.636Z,24.07
2022-08-18T03:02:10.679Z,24.09
2022-08-18T03:04:38.882Z,24.00
2022-08-18T03:07:09.501Z,23.59
2022-08-18T03:09:38.181Z,23.50
2022-08-18T03:12:08.577Z,23.31
2022-08-18T03:14:39.997Z,23.41
2022-08-18T03:17:10.292Z,23.62
2022-08-18T03:19:38.874Z,23.83
2022-08-18T03:22:27.606Z,23.94
2022-08-18T03:24:57.868Z,23.94
2022-08-18T03:27:26.683Z,23.69
2022-08-18T03:29:56.686Z,23.66
2022-08-18T03:32:27.231Z,23.66
2022-08-18T03:34:55.485Z,23.52
2022-08-18T03:37:23.601Z,23.43
2022-08-18T03:39:52.929Z,23.43
2022-08-18T03:42:21.218Z,23.43
2022-08-18T03:44:49.332Z,23.39
2022-08-18T03:47:19.554Z,23.44
2022-08-18T03:49:48.508Z,23.37
2022-08-18T03:52:16.943Z,23.41
2022-08-18T03:54:45.214Z,23.36
2022-08-18T03:57:14.435Z,23.40
2022-08-18T03:59:43.847Z,23.45
2022-08-18T04:02:13.164Z,23.28
2022-08-18T04:04:43.162Z,23.32
2022-08-18T04:07:17.381Z,23.36
2022-08-18T04:09:46.359Z,23.40
2022-08-18T04:12:17.466Z,23.43
2022-08-18T04:14:50.384Z,23.45
2022-08-18T04:17:25.114Z,23.48
2022-08-18T04:19:56.561Z,23.54
2022-08-18T04:22:26.458Z,23.58
2022-08-18T04:24:55.658Z,23.64
2022-08-18T04:27:26.390Z,23.67
2022-08-18T04:29:56.831Z,23.80
2022-08-18T04:32:29.921Z,23.99
2022-08-18T04:35:02.531Z,24.09
2022-08-18T04:37:33.156Z,24.18
2022-08-18T04:40:07.878Z,24.17
2022-08-18T04:42:36.053Z,24.37
2022-08-18T04:45:13.076Z,24.51
2022-08-18T04:47:41.926Z,24.59
2022-08-18T04:50:12.397Z,24.61
2022-08-18T04:52:57.994Z,24.59
2022-08-18T04:55:26.382Z,24.79
2022-08-18T04:57:54.505Z,24.97
2022-08-18T05:00:23.018Z,24.96
2022-08-18T05:02:54.606Z,24.90
2022-08-18T05:05:24.612Z,25.04
2022-08-18T05:07:52.876Z,25.05
2022-08-18T05:10:21.155Z,25.12
2022-08-18T05:12:49.917Z,25.69
2022-08-18T05:15:19.055Z,27.31
2022-08-18T05:17:50.385Z,28.68
2022-08-18T05:20:19.427Z,29.68
2022-08-18T05:22:50.158Z,30.77
2022-08-18T05:25:18.671Z,30.67
2022-08-18T05:27:46.775Z,30.89
2022-08-18T05:30:15.696Z,31.16
2022-08-18T05:32:49.718Z,32.26
2022-08-18T05:35:23.457Z,31.21
2022-08-18T05:38:28.081Z,31.69
2022-08-18T05:41:14.067Z,31.39
2022-08-18T05:43:52.076Z,30.93
2022-08-18T05:46:23.468Z,29.95
2022-08-18T05:48:53.569Z,30.80
2022-08-18T05:51:27.722Z,31.52
2022-08-18T05:54:15.464Z,32.44
2022-08-18T05:56:47.612Z,31.98
2022-08-18T05:59:22.244Z,34.07
2022-08-18T06:01:56.985Z,33.97
2022-08-18T06:04:31.537Z,33.82
2022-08-18T06:07:05.677Z,32.50
2022-08-18T06:09:40.533Z,33.67
2022-08-18T06:12:21.082Z,34.71
2022-08-18T06:14:49.283Z,34.48
2022-08-18T06:17:38.225Z,35.47
2022-08-18T06:20:16.642Z,36.75
2022-08-18T06:22:56.628Z,36.46
2022-08-18T06:25:35.264Z,36.52
2022-08-18T06:28:08.699Z,36.41
2022-08-18T06:30:52.178Z,36.66
2022-08-18T06:33:39.610Z,36.42
2022-08-18T06:36:19.736Z,36.69
2022-08-18T06:39:44.486Z,36.64
2022-08-18T06:42:14.009Z,36.60
2022-08-18T06:44:46.750Z,36.95
2022-08-18T06:47:22.489Z,36.49
2022-08-18T06:49:59.138Z,35.85
2022-08-18T06:52:30.936Z,36.65
2022-08-18T06:55:01.535Z,36.75
2022-08-18T06:57:34.746Z,36.31
2022-08-18T07:00:11.306Z,36.30
2022-08-18T07:02:50.817Z,36.40
2022-08-18T07:05:25.451Z,36.10
2022-08-18T07:08:18.940Z,36.38
2022-08-18T07:10:48.559Z,36.05
2022-08-18T07:13:25.661Z,36.46
2022-08-18T07:15:55.778Z,36.30
2022-08-18T07:18:27.487Z,36.24
2022-08-18T07:20:58.964Z,36.24
2022-08-18T07:23:32.310Z,35.78
2022-08-18T07:26:05.765Z,35.84
2022-08-18T07:28:40.311Z,35.74
2022-08-18T07:31:30.718Z,35.46
2022-08-18T07:34:02.718Z,35.51
2022-08-18T07:36:35.613Z,35.36
2022-08-18T07:39:09.047Z,35.21
2022-08-18T07:41:44.054Z,34.14
2022-08-18T07:44:18.953Z,33.65
2022-08-18T07:46:57.381Z,33.23
2022-08-18T07:49:28.040Z,32.64
2022-08-18T07:52:14.617Z,31.90
2022-08-18T07:55:04.865Z,31.42
2022-08-18T07:57:43.716Z,30.95
2022-08-18T08:00:54.898Z,30.65
2022-08-18T08:03:27.021Z,30.57
2022-08-18T08:06:08.607Z,30.48
2022-08-18T08:08:43.586Z,30.13
2022-08-18T08:11:27.506Z,30.19
2022-08-18T08:14:07.268Z,30.31
2022-08-18T08:16:45.715Z,30.28
2022-08-18T08:19:59.068Z,30.53
2022-08-18T08:22:29.540Z,30.11
2022-08-18T08:25:17.499Z,30.34
2022-08-18T08:28:07.455Z,30.29
2022-08-18T08:30:42.273Z,30.37
2022-08-18T08:33:21.350Z,30.50
2022-08-18T08:35:55.069Z,30.17
2022-08-18T08:38:42.409Z,30.18
2022-08-18T08:41:20.009Z,29.82
2022-08-18T08:43:55.275Z,30.31
2022-08-18T08:46:30.073Z,30.33
2022-08-18T08:49:07.107Z,30.29
2022-08-18T08:51:40.913Z,30.15
2022-08-18T08:54:16.284Z,30.47
2022-08-18T08:56:48.444Z,30.47
2022-08-18T08:59:19.736Z,30.60
2022-08-18T09:02:00.269Z,30.71
2022-08-18T09:04:54.805Z,30.58
2022-08-18T09:07:48.032Z,30.76
2022-08-18T09:10:42.447Z,30.49
2022-08-18T09:13:33.627Z,30.85
2022-08-18T09:16:23.356Z,30.89
2022-08-18T09:19:12.939Z,31.04
2022-08-18T09:21:49.806Z,31.41
2022-08-18T09:24:25.860Z,31.59
2022-08-18T09:27:14.817Z,31.31
2022-08-18T09:29:53.444Z,31.31
2022-08-18T09:32:54.609Z,30.94
2022-08-18T09:35:55.764Z,30.53
2022-08-18T09:38:48.617Z,30.50
2022-08-18T09:41:35.848Z,31.04
2022-08-18T09:44:21.763Z,30.49
2022-08-18T09:46:58.814Z,31.26
2022-08-18T09:49:47.911Z,31.12
2022-08-18T09:52:56.114Z,30.84
2022-08-18T09:59:10.895Z,30.85
2022-08-18T10:01:42.983Z,30.73
2022-08-18T10:04:34.102Z,30.36
2022-08-18T10:11:01.504Z,29.03
2022-08-18T10:13:25.443Z,29.37
2022-08-18T10:16:11.490Z,29.68
2022-08-18T10:19:23.203Z,30.01
2022-08-18T10:22:06.558Z,30.56
2022-08-18T10:24:38.490Z,30.70
2022-08-18T10:27:10.021Z,30.95
2022-08-18T10:29:57.036Z,30.64
2022-08-18T10:32:54.044Z,30.17
2022-08-18T10:36:07.328Z,29.61
2022-08-18T10:38:45.959Z,29.75
2022-08-18T10:41:31.550Z,29.66
2022-08-18T10:44:15.344Z,29.75
2022-08-18T10:46:54.194Z,30.06
2022-08-18T10:49:32.119Z,30.40
2022-08-18T10:52:45.506Z,30.84
2022-08-18T10:55:50.126Z,29.85
2022-08-18T10:58:49.693Z,29.15
2022-08-18T11:01:32.762Z,28.92
2022-08-18T11:04:33.423Z,29.40
2022-08-18T11:07:12.479Z,29.44
2022-08-18T11:09:50.673Z,29.05
2022-08-18T11:13:07.681Z,29.05
2022-08-18T11:15:50.607Z,29.61
2022-08-18T11:21:33.370Z,29.71
2022-08-18T11:24:12.017Z,29.03
2022-08-18T11:26:43.875Z,28.15
2022-08-18T11:29:33.344Z,28.62
2022-08-18T11:32:09.299Z,28.82
2022-08-18T11:34:52.168Z,29.13
2022-08-18T11:37:28.212Z,29.23
2022-08-18T11:43:30.010Z,29.27
2022-08-18T11:46:16.471Z,29.27
2022-08-18T11:48:51.715Z,29.73
2022-08-18T11:51:25.473Z,29.26
2022-08-18T11:54:02.347Z,29.26
2022-08-18T11:56:37.714Z,29.14
2022-08-18T11:59:07.802Z,29.27
2022-08-18T12:01:48.776Z,29.48
2022-08-18T12:04:25.666Z,29.97
2022-08-18T12:07:00.770Z,29.81
2022-08-18T12:10:16.561Z,29.51
2022-08-18T12:12:31.124Z,29.33
2022-08-18T12:15:24.952Z,29.14
2022-08-18T12:17:54.092Z,28.88
2022-08-18T12:20:23.422Z,29.02
2022-08-18T12:22:54.490Z,29.19
2022-08-18T12:25:25.703Z,28.77
2022-08-18T12:27:54.584Z,28.71
2022-08-18T12:30:23.410Z,28.54
2022-08-18T12:32:55.732Z,28.60
2022-08-18T12:35:25.134Z,28.97
2022-08-18T12:37:59.639Z,29.22
2022-08-18T12:40:33.164Z,29.36
2022-08-18T12:45:49.787Z,28.67
2022-08-18T12:48:18.298Z,28.71
2022-08-18T12:50:55.518Z,28.46
2022-08-18T12:53:30.358Z,28.85
2022-08-18T12:56:13.959Z,28.93
2022-08-18T12:58:42.199Z,29.11
2022-08-18T13:01:11.164Z,29.03
2022-08-18T13:03:42.631Z,28.92
2022-08-18T13:06:11.649Z,28.52
2022-08-18T13:08:48.105Z,28.57
2022-08-18T13:11:23.412Z,28.32
2022-08-18T13:13:56.972Z,27.83
2022-08-18T13:16:30.830Z,28.11
2022-08-18T13:19:10.666Z,28.27
2022-08-18T13:21:41.382Z,28.43
2022-08-18T13:24:12.997Z,28.48
2022-08-18T13:26:46.116Z,28.52
2022-08-18T13:29:17.438Z,28.62
2022-08-18T13:31:56.065Z,28.49
2022-08-18T13:34:30.121Z,28.51
2022-08-18T13:36:58.798Z,28.51
2022-08-18T13:39:33.617Z,28.47
2022-08-18T13:42:26.456Z,28.22
2022-08-18T13:44:55.184Z,28.46
2022-08-18T13:47:28.016Z,28.12
2022-08-18T13:49:58.962Z,28.40
2022-08-18T13:52:34.376Z,28.48
2022-08-18T13:55:08.516Z,28.49
2022-08-18T13:57:50.549Z,28.54
2022-08-18T14:00:30.635Z,28.59
2022-08-18T14:03:03.364Z,28.73
2022-08-18T14:05:36.481Z,28.76
2022-08-18T14:08:19.823Z,28.45
2022-08-18T14:10:51.196Z,28.18
2022-08-18T14:13:24.870Z,27.86
2022-08-18T14:15:54.691Z,27.75
2022-08-18T14:18:28.863Z,27.90
2022-08-18T14:21:22.925Z,27.84
2022-08-18T14:24:10.203Z,27.72
2022-08-18T14:26:51.409Z,27.40
2022-08-18T14:29:47.367Z,27.32
2022-08-18T14:32:17.843Z,27.17
2022-08-18T14:34:50.804Z,27.45
2022-08-18T14:37:19.663Z,27.50
2022-08-18T14:39:50.349Z,27.60
2022-08-18T14:42:21.192Z,27.17
2022-08-18T14:45:26.545Z,27.04
2022-08-18T14:47:59.594Z,26.87
2022-08-18T14:50:28.082Z,26.91
2022-08-18T14:52:56.476Z,26.86
2022-08-18T14:55:27.799Z,26.88
2022-08-18T14:57:59.477Z,27.03
2022-08-18T15:00:30.367Z,27.12
2022-08-18T15:03:00.061Z,27.20
2022-08-18T15:05:33.939Z,27.25
2022-08-18T15:08:04.840Z,26.79
2022-08-18T15:10:34.207Z,26.79
2022-08-18T15:13:03.911Z,26.59
2022-08-18T15:15:51.029Z,26.42
2022-08-18T15:18:22.357Z,26.62
2022-08-18T15:21:19.563Z,26.75
2022-08-18T15:24:19.523Z,26.81
2022-08-18T15:26:51.787Z,26.72
2022-08-18T15:29:29.009Z,26.67
2022-08-18T15:32:06.191Z,26.64
2022-08-18T15:34:46.100Z,26.58
2022-08-18T15:37:19.563Z,26.49
2022-08-18T15:39:51.811Z,26.40
2022-08-18T15:42:24.671Z,26.23
2022-08-18T15:44:53.810Z,26.28
2022-08-18T15:47:25.273Z,26.28
2022-08-18T15:49:54.862Z,26.16
2022-08-18T15:52:25.800Z,26.15
2022-08-18T15:54:56.991Z,26.04
2022-08-18T15:57:39.017Z,26.11
2022-08-18T16:00:12.044Z,26.12
2022-08-18T16:02:48.395Z,26.10
2022-08-18T16:05:17.936Z,26.02
2022-08-18T16:07:47.795Z,26.00
2022-08-18T16:10:18.080Z,26.03
2022-08-18T16:12:46.675Z,25.99
2022-08-18T16:15:21.190Z,26.03
2022-08-18T16:17:52.759Z,26.04
2022-08-18T16:20:23.979Z,26.06
2022-08-18T16:22:52.953Z,26.01
2022-08-18T16:25:22.714Z,25.97
2022-08-18T16:27:51.382Z,25.95
2022-08-18T16:30:23.382Z,25.93
2022-08-18T16:32:53.555Z,25.81
2022-08-18T16:35:22.900Z,25.68
2022-08-18T16:37:51.872Z,25.69
2022-08-18T16:40:20.862Z,25.66
2022-08-18T16:42:49.389Z,25.44
2022-08-18T16:45:22.979Z,25.53
2022-08-18T16:47:52.557Z,25.58
2022-08-18T16:50:20.915Z,25.61
2022-08-18T16:52:49.145Z,25.56
2022-08-18T16:55:17.313Z,25.62
2022-08-18T16:58:03.307Z,25.64
2022-08-18T17:00:54.679Z,25.63
2022-08-18T17:03:58.445Z,25.65
2022-08-18T17:06:28.410Z,25.61
2022-08-18T17:08:57.468Z,25.63
2022-08-18T17:11:28.104Z,25.45
2022-08-18T17:13:58.441Z,25.22
2022-08-18T17:16:29.140Z,25.13
2022-08-18T17:19:00.399Z,25.18
2022-08-18T17:24:09.195Z,25.23
2022-08-18T17:26:49.588Z,25.28
2022-08-18T17:29:21.631Z,25.34
2022-08-18T17:31:55.069Z,25.29
2022-08-18T17:34:32.240Z,25.25
2022-08-18T17:37:02.691Z,25.25
2022-08-18T17:39:37.818Z,25.15
2022-08-18T17:42:23.915Z,25.19
2022-08-18T17:44:54.168Z,25.21
2022-08-18T17:47:29.150Z,25.22
2022-08-18T17:50:26.979Z,25.29
2022-08-18T17:53:05.513Z,25.19
2022-08-18T17:55:40.336Z,25.15
2022-08-18T17:58:18.673Z,25.31
2022-08-18T18:00:46.875Z,25.34
2022-08-18T18:03:15.142Z,25.29
2022-08-18T18:05:48.922Z,25.34
2022-08-18T18:08:17.654Z,25.22
2022-08-18T18:11:04.284Z,25.11
2022-08-18T18:13:34.337Z,25.19
2022-08-18T18:16:22.244Z,25.21
2022-08-18T18:18:59.866Z,25.12
2022-08-18T18:21:56.564Z,24.89
2022-08-18T18:24:32.405Z,24.88
2022-08-18T18:27:01.157Z,24.90
2022-08-18T18:29:35.670Z,24.74
2022-08-18T18:32:08.670Z,24.76
2022-08-18T18:34:40.402Z,24.83
2022-08-18T18:37:28.817Z,24.81
2022-08-18T18:39:58.984Z,24.80
2022-08-18T18:42:29.524Z,24.73
2022-08-18T18:44:59.936Z,24.83
2022-08-18T18:47:49.918Z,24.69
2022-08-18T18:50:26.022Z,24.59
2022-08-18T18:53:12.207Z,24.49
2022-08-18T18:55:48.887Z,24.25
2022-08-18T18:58:27.326Z,24.21
2022-08-18T19:01:01.844Z,24.31
2022-08-18T19:03:37.619Z,24.42
2022-08-18T19:06:29.515Z,24.37
2022-08-18T19:09:08.887Z,24.36
2022-08-18T19:11:57.712Z,24.32
2022-08-18T19:14:31.893Z,24.29
2022-08-18T19:17:05.820Z,24.40
2022-08-18T19:19:39.304Z,24.36
2022-08-18T19:22:15.929Z,24.36
2022-08-18T19:24:55.040Z,24.26
2022-08-18T19:27:29.306Z,24.20
2022-08-18T19:30:02.906Z,24.16
2022-08-18T19:32:44.408Z,24.14
2022-08-18T19:35:19.779Z,24.06
2022-08-18T19:38:04.579Z,23.96
2022-08-18T19:40:43.029Z,23.88
2022-08-18T19:43:16.834Z,23.84
2022-08-18T19:45:50.518Z,23.75
2022-08-18T19:48:27.300Z,23.71
2022-08-18T19:50:59.246Z,23.61
2022-08-18T19:53:44.440Z,23.58
2022-08-18T19:56:32.872Z,23.57
2022-08-18T19:59:35.026Z,23.57
2022-08-18T20:02:22.106Z,23.60
2022-08-18T20:05:03.625Z,23.66
2022-08-18T20:07:55.331Z,23.67
2022-08-18T20:10:36.293Z,23.67
2022-08-18T20:13:21.041Z,23.64
2022-08-18T20:16:12.281Z,23.71
2022-08-18T20:18:42.812Z,23.76
2022-08-18T20:21:39.791Z,23.81
2022-08-18T20:24:30.559Z,23.85
2022-08-18T20:27:21.414Z,23.87
2022-08-18T20:30:03.500Z,23.85
2022-08-18T20:32:35.705Z,23.85
2022-08-18T20:35:20.377Z,23.85
2022-08-18T20:37:48.481Z,23.81
2022-08-18T20:40:38.342Z,23.81
2022-08-18T20:43:07.642Z,23.85
2022-08-18T20:45:42.577Z,23.83
2022-08-18T20:48:29.226Z,23.92
2022-08-18T20:51:12.008Z,23.91
2022-08-18T20:54:13.153Z,23.89
2022-08-18T20:56:48.256Z,23.92
2022-08-18T20:59:20.582Z,23.96
2022-08-18T21:02:05.071Z,23.94
2022-08-18T21:04:42.969Z,23.97
2022-08-18T21:07:18.479Z,23.88
2022-08-18T21:10:13.071Z,23.92
2022-08-18T21:12:52.931Z,23.84
2022-08-18T21:15:24.311Z,23.85
2022-08-18T21:18:01.109Z,23.82
2022-08-18T21:20:30.450Z,23.82
2022-08-18T21:23:10.058Z,23.78
2022-08-18T21:25:44.285Z,23.82
2022-08-18T21:28:13.200Z,23.77
2022-08-18T21:30:55.439Z,23.70
2022-08-18T21:33:25.205Z,23.67
2022-08-18T21:35:53.521Z,23.70
2022-08-18T21:38:28.227Z,23.75
2022-08-18T21:41:01.914Z,23.65
2022-08-18T21:43:43.617Z,23.54
2022-08-18T21:46:24.425Z,23.49
2022-08-18T21:48:58.812Z,23.45
2022-08-18T21:51:31.610Z,23.40
2022-08-18T21:54:00.858Z,23.41
2022-08-18T21:56:31.318Z,23.43
2022-08-18T21:59:09.697Z,23.36
2022-08-18T22:01:40.154Z,23.25
2022-08-18T22:04:24.418Z,23.21
2022-08-18T22:06:55.566Z,23.20
2022-08-18T22:09:43.695Z,23.22
2022-08-18T22:12:46.183Z,23.12
2022-08-18T22:15:18.612Z,22.92
2022-08-18T22:17:57.404Z,22.84
2022-08-18T22:20:47.991Z,22.87
2022-08-18T22:23:55.947Z,22.85
2022-08-18T22:26:27.538Z,22.83
2022-08-18T22:29:00.973Z,22.73
2022-08-18T22:31:32.668Z,22.77
2022-08-18T22:34:04.746Z,22.79
2022-08-18T22:36:37.541Z,22.78
2022-08-18T22:39:09.187Z,22.70
2022-08-18T22:41:38.166Z,22.76
2022-08-18T22:44:08.066Z,22.73
2022-08-18T22:46:37.038Z,22.71
2022-08-18T22:49:05.470Z,22.69
2022-08-18T22:51:36.810Z,22.77
2022-08-18T22:54:06.351Z,22.87
2022-08-18T22:56:35.795Z,22.83
2022-08-18T22:59:15.571Z,22.79
2022-08-18T23:01:46.586Z,22.73
2022-08-18T23:04:17.140Z,22.71
2022-08-18T23:06:52.529Z,22.67
2022-08-18T23:09:22.973Z,22.63
2022-08-18T23:11:52.247Z,22.62
2022-08-18T23:14:20.566Z,22.64
2022-08-18T23:16:49.767Z,22.62
2022-08-18T23:19:20.400Z,22.59
2022-08-18T23:21:51.776Z,22.64
2022-08-18T23:24:21.354Z,22.59
2022-08-18T23:26:50.535Z,22.58
2022-08-18T23:29:20.000Z,22.57
2022-08-18T23:31:49.613Z,22.55
2022-08-18T23:34:19.494Z,22.56
2022-08-18T23:36:55.545Z,22.56
2022-08-18T23:39:24.016Z,22.72
2022-08-18T23:41:53.041Z,22.88
2022-08-18T23:44:21.391Z,23.06
2022-08-18T23:46:52.440Z,23.10
2022-08-18T23:49:20.889Z,23.15
2022-08-18T23:51:55.084Z,23.17
2022-08-18T23:54:25.994Z,23.19
2022-08-18T23:56:54.090Z,23.16
2022-08-18T23:59:24.977Z,23.16
